Terminal Aerodrome Forecast
Issued by NWS

Home | Current Version | Previous Version | Text Only | Print | Product List | Glossary On
Versions: 1 2 3 4 5 6 7 8 9 10 11 12 13 14 15 16 17 18
570
FTUS46 KSEW 210540
TAFBFI
TAF
KBFI 210540Z 2106/2206 15004KT P6SM SCT050 SCT200
     FM211200 17006KT P6SM BKN020 BKN040
     FM211800 19006KT P6SM SCT025 BKN040
     FM212100 31006KT P6SM SCT050=

USA.gov is the U.S. government's official web portal to all federal, state and local government web resources and services.